sensor_id;sensor_type;location;lat;lon;timestamp;temperature;humidity
3380;DHT22;1703;51.964;7.642;2023-02-04T00:01:25;7.60;99.90
3380;DHT22;1703;51.964;7.642;2023-02-04T00:03:51;7.60;99.90
3380;DHT22;1703;51.964;7.642;2023-02-04T00:06:18;7.60;99.90
3380;DHT22;1703;51.964;7.642;2023-02-04T00:08:45;7.50;99.90
3380;DHT22;1703;51.964;7.642;2023-02-04T00:11:12;7.60;99.90
3380;DHT22;1703;51.964;7.642;2023-02-04T00:13:38;7.60;99.90
3380;DHT22;1703;51.964;7.642;2023-02-04T00:16:06;7.50;99.90
3380;DHT22;1703;51.964;7.642;2023-02-04T00:18:34;7.60;99.90
3380;DHT22;1703;51.964;7.642;2023-02-04T00:21:00;7.50;99.90
3380;DHT22;1703;51.964;7.642;2023-02-04T00:23:27;7.40;99.90
3380;DHT22;1703;51.964;7.642;2023-02-04T00:25:54;7.40;99.90
3380;DHT22;1703;51.964;7.642;2023-02-04T00:28:21;7.40;99.90
3380;DHT22;1703;51.964;7.642;2023-02-04T00:30:47;7.40;99.90
3380;DHT22;1703;51.964;7.642;2023-02-04T00:33:15;7.40;99.90
3380;DHT22;1703;51.964;7.642;2023-02-04T00:35:43;7.40;99.90
3380;DHT22;1703;51.964;7.642;2023-02-04T00:38:10;7.40;99.90
3380;DHT22;1703;51.964;7.642;2023-02-04T00:40:37;7.40;99.90
3380;DHT22;1703;51.964;7.642;2023-02-04T00:43:04;7.40;99.90
3380;DHT22;1703;51.964;7.642;2023-02-04T00:45:31;7.40;99.90
3380;DHT22;1703;51.964;7.642;2023-02-04T00:47:58;7.40;99.90
3380;DHT22;1703;51.964;7.642;2023-02-04T00:50:25;7.40;99.90
3380;DHT22;1703;51.964;7.642;2023-02-04T00:52:53;7.50;99.90
3380;DHT22;1703;51.964;7.642;2023-02-04T00:55:20;7.40;99.90
3380;DHT22;1703;51.964;7.642;2023-02-04T00:57:47;7.40;99.90
3380;DHT22;1703;51.964;7.642;2023-02-04T01:00:15;7.50;99.90
3380;DHT22;1703;51.964;7.642;2023-02-04T01:02:43;7.40;99.90
3380;DHT22;1703;51.964;7.642;2023-02-04T01:05:09;7.50;99.90
3380;DHT22;1703;51.964;7.642;2023-02-04T01:07:36;7.50;99.90
3380;DHT22;1703;51.964;7.642;2023-02-04T01:10:05;7.50;99.90
3380;DHT22;1703;51.964;7.642;2023-02-04T01:12:32;7.50;99.90
3380;DHT22;1703;51.964;7.642;2023-02-04T01:14:59;7.50;99.90
3380;DHT22;1703;51.964;7.642;2023-02-04T01:17:26;7.50;99.90
3380;DHT22;1703;51.964;7.642;2023-02-04T01:19:52;7.40;99.90
3380;DHT22;1703;51.964;7.642;2023-02-04T01:22:19;7.30;99.90
3380;DHT22;1703;51.964;7.642;2023-02-04T01:24:46;7.40;99.90
3380;DHT22;1703;51.964;7.642;2023-02-04T01:27:41;7.30;99.90
3380;DHT22;1703;51.964;7.642;2023-02-04T01:30:09;7.30;99.90
3380;DHT22;1703;51.964;7.642;2023-02-04T01:32:36;7.30;99.90
3380;DHT22;1703;51.964;7.642;2023-02-04T01:35:04;7.30;99.90
3380;DHT22;1703;51.964;7.642;2023-02-04T01:37:31;7.50;99.90
3380;DHT22;1703;51.964;7.642;2023-02-04T01:39:58;7.50;99.90
3380;DHT22;1703;51.964;7.642;2023-02-04T01:42:25;7.50;99.90
3380;DHT22;1703;51.964;7.642;2023-02-04T01:44:53;7.60;99.90
3380;DHT22;1703;51.964;7.642;2023-02-04T01:47:20;7.60;99.90
3380;DHT22;1703;51.964;7.642;2023-02-04T01:49:51;7.60;99.90
3380;DHT22;1703;51.964;7.642;2023-02-04T01:52:18;7.60;99.90
3380;DHT22;1703;51.964;7.642;2023-02-04T01:54:45;7.60;99.90
3380;DHT22;1703;51.964;7.642;2023-02-04T01:57:14;7.60;99.90
3380;DHT22;1703;51.964;7.642;2023-02-04T01:59:43;7.50;99.90
3380;DHT22;1703;51.964;7.642;2023-02-04T02:02:40;7.50;99.90
3380;DHT22;1703;51.964;7.642;2023-02-04T02:05:09;7.50;99.90
3380;DHT22;1703;51.964;7.642;2023-02-04T02:07:36;7.50;99.90
3380;DHT22;1703;51.964;7.642;2023-02-04T02:10:05;7.50;99.90
3380;DHT22;1703;51.964;7.642;2023-02-04T02:12:32;7.50;99.90
3380;DHT22;1703;51.964;7.642;2023-02-04T02:14:59;7.60;99.90
3380;DHT22;1703;51.964;7.642;2023-02-04T02:17:26;7.70;99.90
3380;DHT22;1703;51.964;7.642;2023-02-04T02:19:54;7.60;99.90
3380;DHT22;1703;51.964;7.642;2023-02-04T02:22:24;7.60;99.90
3380;DHT22;1703;51.964;7.642;2023-02-04T02:24:54;7.60;99.90
3380;DHT22;1703;51.964;7.642;2023-02-04T02:27:21;7.60;99.90
3380;DHT22;1703;51.964;7.642;2023-02-04T02:29:49;7.70;99.90
3380;DHT22;1703;51.964;7.642;2023-02-04T02:32:16;7.70;99.90
3380;DHT22;1703;51.964;7.642;2023-02-04T02:34:45;7.70;99.90
3380;DHT22;1703;51.964;7.642;2023-02-04T02:37:12;7.70;99.90
3380;DHT22;1703;51.964;7.642;2023-02-04T02:39:41;7.80;99.90
3380;DHT22;1703;51.964;7.642;2023-02-04T02:42:15;7.90;99.90
3380;DHT22;1703;51.964;7.642;2023-02-04T02:44:43;7.90;99.90
3380;DHT22;1703;51.964;7.642;2023-02-04T02:47:12;7.90;99.90
3380;DHT22;1703;51.964;7.642;2023-02-04T02:49:40;7.80;99.90
3380;DHT22;1703;51.964;7.642;2023-02-04T02:52:09;7.90;99.90
3380;DHT22;1703;51.964;7.642;2023-02-04T02:54:36;7.90;99.90
3380;DHT22;1703;51.964;7.642;2023-02-04T02:57:10;7.90;99.90
3380;DHT22;1703;51.964;7.642;2023-02-04T02:59:39;7.90;99.90
3380;DHT22;1703;51.964;7.642;2023-02-04T03:02:07;7.80;99.90
3380;DHT22;1703;51.964;7.642;2023-02-04T03:04:38;7.80;99.90
3380;DHT22;1703;51.964;7.642;2023-02-04T03:07:11;7.80;99.90
3380;DHT22;1703;51.964;7.642;2023-02-04T03:09:40;7.80;99.90
3380;DHT22;1703;51.964;7.642;2023-02-04T03:12:07;7.80;99.90
3380;DHT22;1703;51.964;7.642;2023-02-04T03:14:35;7.80;99.90
3380;DHT22;1703;51.964;7.642;2023-02-04T03:17:06;7.80;99.90
3380;DHT22;1703;51.964;7.642;2023-02-04T03:19:35;7.80;99.90
3380;DHT22;1703;51.964;7.642;2023-02-04T03:22:03;7.80;99.90
3380;DHT22;1703;51.964;7.642;2023-02-04T03:24:31;7.80;99.90
3380;DHT22;1703;51.964;7.642;2023-02-04T03:26:58;7.80;99.90
3380;DHT22;1703;51.964;7.642;2023-02-04T03:29:25;7.80;99.90
3380;DHT22;1703;51.964;7.642;2023-02-04T03:31:52;7.80;99.90
3380;DHT22;1703;51.964;7.642;2023-02-04T03:34:21;7.80;99.90
3380;DHT22;1703;51.964;7.642;2023-02-04T03:36:48;7.80;99.90
3380;DHT22;1703;51.964;7.642;2023-02-04T03:39:14;7.80;99.90
3380;DHT22;1703;51.964;7.642;2023-02-04T03:41:41;7.80;99.90
3380;DHT22;1703;51.964;7.642;2023-02-04T03:44:08;7.80;99.90
3380;DHT22;1703;51.964;7.642;2023-02-04T03:46:36;7.80;99.90
3380;DHT22;1703;51.964;7.642;2023-02-04T03:49:02;7.90;99.90
3380;DHT22;1703;51.964;7.642;2023-02-04T03:51:31;7.90;99.90
3380;DHT22;1703;51.964;7.642;2023-02-04T03:53:57;7.90;99.90
3380;DHT22;1703;51.964;7.642;2023-02-04T03:56:24;7.90;99.90
3380;DHT22;1703;51.964;7.642;2023-02-04T03:58:51;7.90;99.90
3380;DHT22;1703;51.964;7.642;2023-02-04T04:01:18;7.90;99.90
3380;DHT22;1703;51.964;7.642;2023-02-04T04:03:44;7.90;99.90
3380;DHT22;1703;51.964;7.642;2023-02-04T04:06:11;7.90;99.90
3380;DHT22;1703;51.964;7.642;2023-02-04T04:08:39;7.90;99.90
3380;DHT22;1703;51.964;7.642;2023-02-04T04:11:06;7.90;99.90
3380;DHT22;1703;51.964;7.642;2023-02-04T04:13:33;7.90;99.90
3380;DHT22;1703;51.964;7.642;2023-02-04T04:16:00;7.90;99.90
3380;DHT22;1703;51.964;7.642;2023-02-04T04:18:28;7.90;99.90
3380;DHT22;1703;51.964;7.642;2023-02-04T04:20:54;7.90;99.90
3380;DHT22;1703;51.964;7.642;2023-02-04T04:23:21;7.90;99.90
3380;DHT22;1703;51.964;7.642;2023-02-04T04:25:49;7.90;99.90
3380;DHT22;1703;51.964;7.642;2023-02-04T04:28:16;7.80;99.90
3380;DHT22;1703;51.964;7.642;2023-02-04T04:30:43;7.80;99.90
3380;DHT22;1703;51.964;7.642;2023-02-04T04:33:10;7.80;99.90
3380;DHT22;1703;51.964;7.642;2023-02-04T04:35:37;7.80;99.90
3380;DHT22;1703;51.964;7.642;2023-02-04T04:38:04;7.80;99.90
3380;DHT22;1703;51.964;7.642;2023-02-04T04:40:31;7.80;99.90
3380;DHT22;1703;51.964;7.642;2023-02-04T04:42:59;7.80;99.90
3380;DHT22;1703;51.964;7.642;2023-02-04T04:45:26;7.90;99.90
3380;DHT22;1703;51.964;7.642;2023-02-04T04:47:52;7.90;99.90
3380;DHT22;1703;51.964;7.642;2023-02-04T04:50:19;7.90;99.90
3380;DHT22;1703;51.964;7.642;2023-02-04T04:52:46;8.00;99.90
3380;DHT22;1703;51.964;7.642;2023-02-04T04:55:13;8.10;99.90
3380;DHT22;1703;51.964;7.642;2023-02-04T04:57:40;8.10;99.90
3380;DHT22;1703;51.964;7.642;2023-02-04T05:00:13;8.10;99.90
3380;DHT22;1703;51.964;7.642;2023-02-04T05:02:41;8.10;99.90
3380;DHT22;1703;51.964;7.642;2023-02-04T05:05:08;8.00;99.90
3380;DHT22;1703;51.964;7.642;2023-02-04T05:07:35;8.10;99.90
3380;DHT22;1703;51.964;7.642;2023-02-04T05:10:02;8.10;99.90
3380;DHT22;1703;51.964;7.642;2023-02-04T05:12:29;8.10;99.90
3380;DHT22;1703;51.964;7.642;2023-02-04T05:14:56;8.10;99.90
3380;DHT22;1703;51.964;7.642;2023-02-04T05:17:24;8.10;99.90
3380;DHT22;1703;51.964;7.642;2023-02-04T05:19:51;8.10;99.90
3380;DHT22;1703;51.964;7.642;2023-02-04T05:22:18;8.10;99.90
3380;DHT22;1703;51.964;7.642;2023-02-04T05:24:44;8.10;99.90
3380;DHT22;1703;51.964;7.642;2023-02-04T05:27:11;8.10;99.90
3380;DHT22;1703;51.964;7.642;2023-02-04T05:29:38;8.20;99.90
3380;DHT22;1703;51.964;7.642;2023-02-04T05:32:05;8.20;99.90
3380;DHT22;1703;51.964;7.642;2023-02-04T05:34:33;8.20;99.90
3380;DHT22;1703;51.964;7.642;2023-02-04T05:37:00;8.20;99.90
3380;DHT22;1703;51.964;7.642;2023-02-04T05:39:26;8.20;99.90
3380;DHT22;1703;51.964;7.642;2023-02-04T05:41:53;8.20;99.90
3380;DHT22;1703;51.964;7.642;2023-02-04T05:44:20;8.20;99.90
3380;DHT22;1703;51.964;7.642;2023-02-04T05:46:47;8.10;99.90
3380;DHT22;1703;51.964;7.642;2023-02-04T05:49:14;8.20;99.90
3380;DHT22;1703;51.964;7.642;2023-02-04T05:51:42;8.10;99.90
3380;DHT22;1703;51.964;7.642;2023-02-04T05:54:08;8.10;99.90
3380;DHT22;1703;51.964;7.642;2023-02-04T05:56:35;8.10;99.90
3380;DHT22;1703;51.964;7.642;2023-02-04T05:59:02;8.20;99.90
3380;DHT22;1703;51.964;7.642;2023-02-04T06:01:29;8.20;99.90
3380;DHT22;1703;51.964;7.642;2023-02-04T06:03:56;8.10;99.90
3380;DHT22;1703;51.964;7.642;2023-02-04T06:06:22;8.10;99.90
3380;DHT22;1703;51.964;7.642;2023-02-04T06:08:51;8.20;99.90
3380;DHT22;1703;51.964;7.642;2023-02-04T06:11:17;8.20;99.90
3380;DHT22;1703;51.964;7.642;2023-02-04T06:13:44;8.10;99.90
3380;DHT22;1703;51.964;7.642;2023-02-04T06:16:11;8.20;99.90
3380;DHT22;1703;51.964;7.642;2023-02-04T06:18:38;8.20;99.90
3380;DHT22;1703;51.964;7.642;2023-02-04T06:21:05;8.20;99.90
3380;DHT22;1703;51.964;7.642;2023-02-04T06:23:32;8.20;99.90
3380;DHT22;1703;51.964;7.642;2023-02-04T06:26:00;8.20;99.90
3380;DHT22;1703;51.964;7.642;2023-02-04T06:28:27;8.10;99.90
3380;DHT22;1703;51.964;7.642;2023-02-04T06:30:54;8.10;99.90
3380;DHT22;1703;51.964;7.642;2023-02-04T06:33:21;8.10;99.90
3380;DHT22;1703;51.964;7.642;2023-02-04T06:35:49;8.10;99.90
3380;DHT22;1703;51.964;7.642;2023-02-04T06:38:16;8.20;99.90
3380;DHT22;1703;51.964;7.642;2023-02-04T06:40:43;8.10;99.90
3380;DHT22;1703;51.964;7.642;2023-02-04T06:43:15;8.10;99.90
3380;DHT22;1703;51.964;7.642;2023-02-04T06:45:44;8.10;99.90
3380;DHT22;1703;51.964;7.642;2023-02-04T06:48:10;8.10;99.90
3380;DHT22;1703;51.964;7.642;2023-02-04T06:50:37;8.10;99.90
3380;DHT22;1703;51.964;7.642;2023-02-04T06:53:04;8.10;99.90
3380;DHT22;1703;51.964;7.642;2023-02-04T06:55:31;8.10;99.90
3380;DHT22;1703;51.964;7.642;2023-02-04T06:58:00;8.10;99.90
3380;DHT22;1703;51.964;7.642;2023-02-04T07:00:28;8.10;99.90
3380;DHT22;1703;51.964;7.642;2023-02-04T07:02:56;8.10;99.90
3380;DHT22;1703;51.964;7.642;2023-02-04T07:05:24;8.10;99.90
3380;DHT22;1703;51.964;7.642;2023-02-04T07:07:51;8.00;99.90
3380;DHT22;1703;51.964;7.642;2023-02-04T07:10:18;8.10;99.90
3380;DHT22;1703;51.964;7.642;2023-02-04T07:12:45;8.10;99.90
3380;DHT22;1703;51.964;7.642;2023-02-04T07:15:12;8.10;99.90
3380;DHT22;1703;51.964;7.642;2023-02-04T07:17:41;8.20;99.90
3380;DHT22;1703;51.964;7.642;2023-02-04T07:20:09;8.10;99.90
3380;DHT22;1703;51.964;7.642;2023-02-04T07:22:36;8.10;99.90
3380;DHT22;1703;51.964;7.642;2023-02-04T07:25:07;8.10;99.90
3380;DHT22;1703;51.964;7.642;2023-02-04T07:27:36;8.10;99.90
3380;DHT22;1703;51.964;7.642;2023-02-04T07:30:03;8.10;99.90
3380;DHT22;1703;51.964;7.642;2023-02-04T07:32:29;8.10;99.90
3380;DHT22;1703;51.964;7.642;2023-02-04T07:34:59;8.20;99.90
3380;DHT22;1703;51.964;7.642;2023-02-04T07:37:26;8.20;99.90
3380;DHT22;1703;51.964;7.642;2023-02-04T07:39:53;8.20;99.90
3380;DHT22;1703;51.964;7.642;2023-02-04T07:42:20;8.20;99.90
3380;DHT22;1703;51.964;7.642;2023-02-04T07:44:53;8.20;99.90
3380;DHT22;1703;51.964;7.642;2023-02-04T07:47:19;8.20;99.90
3380;DHT22;1703;51.964;7.642;2023-02-04T07:49:46;8.20;99.90
3380;DHT22;1703;51.964;7.642;2023-02-04T07:52:14;8.20;99.90
3380;DHT22;1703;51.964;7.642;2023-02-04T07:54:41;8.20;99.90
3380;DHT22;1703;51.964;7.642;2023-02-04T07:57:08;8.20;99.90
3380;DHT22;1703;51.964;7.642;2023-02-04T07:59:35;8.30;99.90
3380;DHT22;1703;51.964;7.642;2023-02-04T08:02:01;8.30;99.90
3380;DHT22;1703;51.964;7.642;2023-02-04T08:04:28;8.40;99.90
3380;DHT22;1703;51.964;7.642;2023-02-04T08:06:55;8.40;99.90
3380;DHT22;1703;51.964;7.642;2023-02-04T08:09:23;8.30;99.90
3380;DHT22;1703;51.964;7.642;2023-02-04T08:11:51;8.40;99.90
3380;DHT22;1703;51.964;7.642;2023-02-04T08:14:18;8.40;99.90
3380;DHT22;1703;51.964;7.642;2023-02-04T08:16:45;8.40;99.90
3380;DHT22;1703;51.964;7.642;2023-02-04T08:19:12;8.40;99.90
3380;DHT22;1703;51.964;7.642;2023-02-04T08:21:43;8.40;99.90
3380;DHT22;1703;51.964;7.642;2023-02-04T08:24:10;8.30;99.90
3380;DHT22;1703;51.964;7.642;2023-02-04T08:26:38;8.30;99.90
3380;DHT22;1703;51.964;7.642;2023-02-04T08:29:05;8.30;99.90
3380;DHT22;1703;51.964;7.642;2023-02-04T08:31:33;8.30;99.90
3380;DHT22;1703;51.964;7.642;2023-02-04T08:34:01;8.30;99.90
3380;DHT22;1703;51.964;7.642;2023-02-04T08:36:27;8.30;99.90
3380;DHT22;1703;51.964;7.642;2023-02-04T08:38:54;8.30;99.90
3380;DHT22;1703;51.964;7.642;2023-02-04T08:41:21;8.30;99.90
3380;DHT22;1703;51.964;7.642;2023-02-04T08:43:49;8.30;99.90
3380;DHT22;1703;51.964;7.642;2023-02-04T08:46:16;8.40;99.90
3380;DHT22;1703;51.964;7.642;2023-02-04T08:48:43;8.40;99.90
3380;DHT22;1703;51.964;7.642;2023-02-04T08:51:09;8.40;99.90
3380;DHT22;1703;51.964;7.642;2023-02-04T08:53:36;8.40;99.90
3380;DHT22;1703;51.964;7.642;2023-02-04T08:56:05;8.40;99.90
3380;DHT22;1703;51.964;7.642;2023-02-04T08:58:32;8.50;99.90
3380;DHT22;1703;51.964;7.642;2023-02-04T09:01:00;8.50;99.90
3380;DHT22;1703;51.964;7.642;2023-02-04T09:03:27;8.50;99.90
3380;DHT22;1703;51.964;7.642;2023-02-04T09:05:54;8.60;99.90
3380;DHT22;1703;51.964;7.642;2023-02-04T09:08:21;8.50;99.90
3380;DHT22;1703;51.964;7.642;2023-02-04T09:10:48;8.60;99.90
3380;DHT22;1703;51.964;7.642;2023-02-04T09:13:15;8.70;99.90
3380;DHT22;1703;51.964;7.642;2023-02-04T09:15:42;8.70;99.90
3380;DHT22;1703;51.964;7.642;2023-02-04T09:18:11;8.70;99.90
3380;DHT22;1703;51.964;7.642;2023-02-04T09:20:41;8.80;99.90
3380;DHT22;1703;51.964;7.642;2023-02-04T09:23:08;8.80;99.90
3380;DHT22;1703;51.964;7.642;2023-02-04T09:25:37;8.90;99.90
3380;DHT22;1703;51.964;7.642;2023-02-04T09:28:04;8.80;99.90
3380;DHT22;1703;51.964;7.642;2023-02-04T09:30:31;8.70;99.90
3380;DHT22;1703;51.964;7.642;2023-02-04T09:32:58;8.70;99.90
3380;DHT22;1703;51.964;7.642;2023-02-04T09:35:26;8.90;99.90
3380;DHT22;1703;51.964;7.642;2023-02-04T09:37:53;8.90;99.90
3380;DHT22;1703;51.964;7.642;2023-02-04T09:40:20;8.90;99.90
3380;DHT22;1703;51.964;7.642;2023-02-04T09:42:48;8.90;99.90
3380;DHT22;1703;51.964;7.642;2023-02-04T09:45:17;9.00;99.90
3380;DHT22;1703;51.964;7.642;2023-02-04T09:47:45;9.00;99.90
3380;DHT22;1703;51.964;7.642;2023-02-04T09:50:14;8.90;99.90
3380;DHT22;1703;51.964;7.642;2023-02-04T09:52:43;8.70;99.90
3380;DHT22;1703;51.964;7.642;2023-02-04T09:55:12;8.80;99.90
3380;DHT22;1703;51.964;7.642;2023-02-04T09:57:39;8.90;99.90
3380;DHT22;1703;51.964;7.642;2023-02-04T10:00:14;8.90;99.90
3380;DHT22;1703;51.964;7.642;2023-02-04T10:02:41;9.00;99.90
3380;DHT22;1703;51.964;7.642;2023-02-04T10:05:12;9.00;99.90
3380;DHT22;1703;51.964;7.642;2023-02-04T10:07:41;9.00;99.90
3380;DHT22;1703;51.964;7.642;2023-02-04T10:10:13;9.10;99.90
3380;DHT22;1703;51.964;7.642;2023-02-04T10:12:41;9.20;99.90
3380;DHT22;1703;51.964;7.642;2023-02-04T10:15:12;9.30;99.90
3380;DHT22;1703;51.964;7.642;2023-02-04T10:17:39;9.30;99.90
3380;DHT22;1703;51.964;7.642;2023-02-04T10:20:12;9.40;99.90
3380;DHT22;1703;51.964;7.642;2023-02-04T10:22:39;9.30;99.90
3380;DHT22;1703;51.964;7.642;2023-02-04T10:25:12;9.30;99.90
3380;DHT22;1703;51.964;7.642;2023-02-04T10:27:47;9.30;99.90
3380;DHT22;1703;51.964;7.642;2023-02-04T10:30:20;9.40;99.90
3380;DHT22;1703;51.964;7.642;2023-02-04T10:32:51;9.50;99.90
3380;DHT22;1703;51.964;7.642;2023-02-04T10:35:45;9.50;99.90
3380;DHT22;1703;51.964;7.642;2023-02-04T10:38:12;9.40;99.90
3380;DHT22;1703;51.964;7.642;2023-02-04T10:40:41;9.50;99.90
3380;DHT22;1703;51.964;7.642;2023-02-04T10:43:13;9.50;99.90
3380;DHT22;1703;51.964;7.642;2023-02-04T10:45:44;9.60;99.90
3380;DHT22;1703;51.964;7.642;2023-02-04T10:48:15;9.60;99.90
3380;DHT22;1703;51.964;7.642;2023-02-04T10:50:43;9.60;99.90
3380;DHT22;1703;51.964;7.642;2023-02-04T10:53:14;9.80;99.90
3380;DHT22;1703;51.964;7.642;2023-02-04T10:56:00;9.90;99.90
3380;DHT22;1703;51.964;7.642;2023-02-04T10:58:29;9.80;99.90
3380;DHT22;1703;51.964;7.642;2023-02-04T11:00:57;9.70;99.90
3380;DHT22;1703;51.964;7.642;2023-02-04T11:03:25;9.80;99.90
3380;DHT22;1703;51.964;7.642;2023-02-04T11:05:55;9.80;99.90
3380;DHT22;1703;51.964;7.642;2023-02-04T11:08:24;9.80;99.90
3380;DHT22;1703;51.964;7.642;2023-02-04T11:10:55;9.80;99.90
3380;DHT22;1703;51.964;7.642;2023-02-04T11:13:25;9.80;99.90
3380;DHT22;1703;51.964;7.642;2023-02-04T11:16:09;9.80;99.90
3380;DHT22;1703;51.964;7.642;2023-02-04T11:18:45;9.80;99.90
3380;DHT22;1703;51.964;7.642;2023-02-04T11:21:24;9.80;99.90
3380;DHT22;1703;51.964;7.642;2023-02-04T11:24:03;9.80;99.90
3380;DHT22;1703;51.964;7.642;2023-02-04T11:26:34;9.80;99.90
3380;DHT22;1703;51.964;7.642;2023-02-04T11:29:24;10.00;99.90
3380;DHT22;1703;51.964;7.642;2023-02-04T11:31:58;10.10;99.90
3380;DHT22;1703;51.964;7.642;2023-02-04T11:34:44;10.00;99.90
3380;DHT22;1703;51.964;7.642;2023-02-04T11:37:16;10.00;99.90
3380;DHT22;1703;51.964;7.642;2023-02-04T11:39:44;10.00;99.90
3380;DHT22;1703;51.964;7.642;2023-02-04T11:42:22;10.00;99.90
3380;DHT22;1703;51.964;7.642;2023-02-04T11:44:57;10.00;99.90
3380;DHT22;1703;51.964;7.642;2023-02-04T11:47:25;10.10;99.90
3380;DHT22;1703;51.964;7.642;2023-02-04T11:49:56;10.20;99.90
3380;DHT22;1703;51.964;7.642;2023-02-04T11:52:23;10.30;99.90
3380;DHT22;1703;51.964;7.642;2023-02-04T11:54:54;10.20;99.90
3380;DHT22;1703;51.964;7.642;2023-02-04T11:57:21;10.20;99.90
3380;DHT22;1703;51.964;7.642;2023-02-04T11:59:48;10.20;99.90
3380;DHT22;1703;51.964;7.642;2023-02-04T12:02:18;10.30;99.90
3380;DHT22;1703;51.964;7.642;2023-02-04T12:04:53;10.40;99.90
3380;DHT22;1703;51.964;7.642;2023-02-04T12:07:23;10.20;99.90
3380;DHT22;1703;51.964;7.642;2023-02-04T12:09:50;10.30;99.90
3380;DHT22;1703;51.964;7.642;2023-02-04T12:12:25;10.20;99.90
3380;DHT22;1703;51.964;7.642;2023-02-04T12:14:57;10.30;99.90
3380;DHT22;1703;51.964;7.642;2023-02-04T12:17:25;10.10;99.90
3380;DHT22;1703;51.964;7.642;2023-02-04T12:19:52;10.00;99.90
3380;DHT22;1703;51.964;7.642;2023-02-04T12:22:19;10.10;99.90
3380;DHT22;1703;51.964;7.642;2023-02-04T12:24:46;10.20;99.90
3380;DHT22;1703;51.964;7.642;2023-02-04T12:27:13;10.20;99.90
3380;DHT22;1703;51.964;7.642;2023-02-04T12:29:39;10.20;99.90
3380;DHT22;1703;51.964;7.642;2023-02-04T12:32:06;10.10;99.90
3380;DHT22;1703;51.964;7.642;2023-02-04T12:34:34;10.10;99.90
3380;DHT22;1703;51.964;7.642;2023-02-04T12:37:01;10.10;99.90
3380;DHT22;1703;51.964;7.642;2023-02-04T12:39:28;10.10;99.90
3380;DHT22;1703;51.964;7.642;2023-02-04T12:41:56;10.30;99.90
3380;DHT22;1703;51.964;7.642;2023-02-04T12:44:23;10.30;99.90
3380;DHT22;1703;51.964;7.642;2023-02-04T12:46:50;10.40;99.90
3380;DHT22;1703;51.964;7.642;2023-02-04T12:49:17;10.30;99.90
3380;DHT22;1703;51.964;7.642;2023-02-04T12:51:45;10.30;99.90
3380;DHT22;1703;51.964;7.642;2023-02-04T12:54:12;10.10;99.90
3380;DHT22;1703;51.964;7.642;2023-02-04T12:56:38;10.10;99.90
3380;DHT22;1703;51.964;7.642;2023-02-04T12:59:05;10.10;99.90
3380;DHT22;1703;51.964;7.642;2023-02-04T13:01:32;10.10;99.90
3380;DHT22;1703;51.964;7.642;2023-02-04T13:03:59;10.20;99.90
3380;DHT22;1703;51.964;7.642;2023-02-04T13:06:25;10.30;99.90
3380;DHT22;1703;51.964;7.642;2023-02-04T13:08:54;10.30;99.90
3380;DHT22;1703;51.964;7.642;2023-02-04T13:11:20;10.20;99.90
3380;DHT22;1703;51.964;7.642;2023-02-04T13:13:47;10.30;99.90
3380;DHT22;1703;51.964;7.642;2023-02-04T13:16:14;10.30;99.90
3380;DHT22;1703;51.964;7.642;2023-02-04T13:18:42;10.30;99.90
3380;DHT22;1703;51.964;7.642;2023-02-04T13:21:09;10.20;99.90
3380;DHT22;1703;51.964;7.642;2023-02-04T13:23:35;10.20;99.90
3380;DHT22;1703;51.964;7.642;2023-02-04T13:26:04;10.10;99.90
3380;DHT22;1703;51.964;7.642;2023-02-04T13:28:32;10.10;99.90
3380;DHT22;1703;51.964;7.642;2023-02-04T13:30:59;10.20;99.90
3380;DHT22;1703;51.964;7.642;2023-02-04T13:33:27;10.40;99.90
3380;DHT22;1703;51.964;7.642;2023-02-04T13:35:53;10.40;99.90
3380;DHT22;1703;51.964;7.642;2023-02-04T13:38:21;10.60;99.90
3380;DHT22;1703;51.964;7.642;2023-02-04T13:40:49;10.60;99.90
3380;DHT22;1703;51.964;7.642;2023-02-04T13:43:17;10.60;99.90
3380;DHT22;1703;51.964;7.642;2023-02-04T13:45:44;10.60;99.90
3380;DHT22;1703;51.964;7.642;2023-02-04T13:48:13;10.50;99.90
3380;DHT22;1703;51.964;7.642;2023-02-04T13:50:40;10.50;99.90
3380;DHT22;1703;51.964;7.642;2023-02-04T13:53:07;10.50;99.90
3380;DHT22;1703;51.964;7.642;2023-02-04T13:55:34;10.60;99.90
3380;DHT22;1703;51.964;7.642;2023-02-04T13:58:00;10.60;99.90
3380;DHT22;1703;51.964;7.642;2023-02-04T14:00:28;10.40;99.90
3380;DHT22;1703;51.964;7.642;2023-02-04T14:02:55;10.40;99.90
3380;DHT22;1703;51.964;7.642;2023-02-04T14:05:22;10.30;99.90
3380;DHT22;1703;51.964;7.642;2023-02-04T14:07:49;10.20;99.90
3380;DHT22;1703;51.964;7.642;2023-02-04T14:10:16;10.30;99.90
3380;DHT22;1703;51.964;7.642;2023-02-04T14:12:43;10.30;99.90
3380;DHT22;1703;51.964;7.642;2023-02-04T14:15:10;10.30;99.90
3380;DHT22;1703;51.964;7.642;2023-02-04T14:17:38;10.30;99.90
3380;DHT22;1703;51.964;7.642;2023-02-04T14:20:05;10.20;99.90
3380;DHT22;1703;51.964;7.642;2023-02-04T14:22:32;10.10;99.90
3380;DHT22;1703;51.964;7.642;2023-02-04T14:24:59;10.10;99.90
3380;DHT22;1703;51.964;7.642;2023-02-04T14:27:26;10.00;99.90
3380;DHT22;1703;51.964;7.642;2023-02-04T14:29:53;10.10;99.90
3380;DHT22;1703;51.964;7.642;2023-02-04T14:32:19;10.20;99.90
3380;DHT22;1703;51.964;7.642;2023-02-04T14:34:49;10.30;99.90
3380;DHT22;1703;51.964;7.642;2023-02-04T14:37:15;10.30;99.90
3380;DHT22;1703;51.964;7.642;2023-02-04T14:39:42;10.20;99.90
3380;DHT22;1703;51.964;7.642;2023-02-04T14:42:09;10.10;99.90
3380;DHT22;1703;51.964;7.642;2023-02-04T14:44:36;10.20;99.90
3380;DHT22;1703;51.964;7.642;2023-02-04T14:47:03;10.20;99.90
3380;DHT22;1703;51.964;7.642;2023-02-04T14:49:29;10.20;99.90
3380;DHT22;1703;51.964;7.642;2023-02-04T14:51:58;10.20;99.90
3380;DHT22;1703;51.964;7.642;2023-02-04T14:54:25;10.30;99.90
3380;DHT22;1703;51.964;7.642;2023-02-04T14:56:52;10.20;99.90
3380;DHT22;1703;51.964;7.642;2023-02-04T14:59:19;10.30;99.90
3380;DHT22;1703;51.964;7.642;2023-02-04T15:01:46;10.20;99.90
3380;DHT22;1703;51.964;7.642;2023-02-04T15:04:13;10.10;99.90
3380;DHT22;1703;51.964;7.642;2023-02-04T15:06:40;10.30;99.90
3380;DHT22;1703;51.964;7.642;2023-02-04T15:09:08;10.30;99.90
3380;DHT22;1703;51.964;7.642;2023-02-04T15:11:35;10.30;99.90
3380;DHT22;1703;51.964;7.642;2023-02-04T15:14:02;10.30;99.90
3380;DHT22;1703;51.964;7.642;2023-02-04T15:16:29;10.30;99.90
3380;DHT22;1703;51.964;7.642;2023-02-04T15:18:56;10.10;99.90
3380;DHT22;1703;51.964;7.642;2023-02-04T15:21:23;10.10;99.90
3380;DHT22;1703;51.964;7.642;2023-02-04T15:23:50;10.00;99.90
3380;DHT22;1703;51.964;7.642;2023-02-04T15:26:18;9.90;99.90
3380;DHT22;1703;51.964;7.642;2023-02-04T15:28:45;9.90;99.90
3380;DHT22;1703;51.964;7.642;2023-02-04T15:31:11;9.90;99.90
3380;DHT22;1703;51.964;7.642;2023-02-04T15:33:38;9.80;99.90
3380;DHT22;1703;51.964;7.642;2023-02-04T15:36:06;9.80;99.90
3380;DHT22;1703;51.964;7.642;2023-02-04T15:38:32;9.80;99.90
3380;DHT22;1703;51.964;7.642;2023-02-04T15:40:59;9.70;99.90
3380;DHT22;1703;51.964;7.642;2023-02-04T15:43:29;9.80;99.90
3380;DHT22;1703;51.964;7.642;2023-02-04T15:45:56;9.70;99.90
3380;DHT22;1703;51.964;7.642;2023-02-04T15:48:23;9.80;99.90
3380;DHT22;1703;51.964;7.642;2023-02-04T15:50:52;9.90;99.90
3380;DHT22;1703;51.964;7.642;2023-02-04T15:53:18;9.90;99.90
3380;DHT22;1703;51.964;7.642;2023-02-04T15:55:45;9.90;99.90
3380;DHT22;1703;51.964;7.642;2023-02-04T15:58:12;9.80;99.90
3380;DHT22;1703;51.964;7.642;2023-02-04T16:00:40;9.80;99.90
3380;DHT22;1703;51.964;7.642;2023-02-04T16:03:09;9.70;99.90
3380;DHT22;1703;51.964;7.642;2023-02-04T16:05:36;9.60;99.90
3380;DHT22;1703;51.964;7.642;2023-02-04T16:08:03;9.50;99.90
3380;DHT22;1703;51.964;7.642;2023-02-04T16:10:30;9.50;99.90
3380;DHT22;1703;51.964;7.642;2023-02-04T16:12:57;9.50;99.90
3380;DHT22;1703;51.964;7.642;2023-02-04T16:15:24;9.40;99.90
3380;DHT22;1703;51.964;7.642;2023-02-04T16:17:52;9.30;99.90
3380;DHT22;1703;51.964;7.642;2023-02-04T16:20:21;9.20;99.90